Terminal Aerodrome Forecast
Issued by NWS Atlanta, GA

Home | Current Version | Previous Version | Text Only | Print | Product List | Glossary On
Versions: 1 2 3 4 5 6 7 8 9 10 11 12 13 14 15 16 17 18
000
FTUS42 KFFC 271300 AAA
TAFCSG
TAF AMD
KCSG 271345Z 2714/2812 08007KT P6SM SKC
     FM271800 04006KT P6SM FEW050
     FM280100 00000KT P6SM SKC=

USA.gov is the U.S. government's official web portal to all federal, state and local government web resources and services.